sensor_id;sensor_type;location;lat;lon;timestamp;pressure;altitude;pressure_sealevel;temperature;humidity
76586;BME280;65251;51.022;13.736;2023-05-19T00:00:18;100262.56;;;12.69;50.09
76586;BME280;65251;51.022;13.736;2023-05-19T00:00:51;100258.66;;;12.72;50.46
76586;BME280;65251;51.022;13.736;2023-05-19T00:01:22;100260.50;;;12.71;50.60
76586;BME280;65251;51.022;13.736;2023-05-19T00:01:54;100263.00;;;12.73;50.50
76586;BME280;65251;51.022;13.736;2023-05-19T00:02:26;100259.50;;;12.72;49.37
76586;BME280;65251;51.022;13.736;2023-05-19T00:02:57;100260.13;;;12.74;50.09
76586;BME280;65251;51.022;13.736;2023-05-19T00:03:30;100258.47;;;12.73;50.01
76586;BME280;65251;51.022;13.736;2023-05-19T00:04:03;100259.69;;;12.71;50.08
76586;BME280;65251;51.022;13.736;2023-05-19T00:04:35;100257.84;;;12.71;50.62
76586;BME280;65251;51.022;13.736;2023-05-19T00:05:08;100264.00;;;12.72;50.60
76586;BME280;65251;51.022;13.736;2023-05-19T00:05:41;100263.00;;;12.73;50.08
76586;BME280;65251;51.022;13.736;2023-05-19T00:06:15;100261.34;;;12.72;49.54
76586;BME280;65251;51.022;13.736;2023-05-19T00:06:49;100260.91;;;12.68;51.21
76586;BME280;65251;51.022;13.736;2023-05-19T00:07:28;100263.75;;;12.67;51.20
76586;BME280;65251;51.022;13.736;2023-05-19T00:08:00;100261.91;;;12.67;51.64
76586;BME280;65251;51.022;13.736;2023-05-19T00:08:33;100248.53;;;12.67;50.01
76586;BME280;65251;51.022;13.736;2023-05-19T00:09:06;100254.53;;;12.69;49.71
76586;BME280;65251;51.022;13.736;2023-05-19T00:09:38;100263.19;;;12.71;50.66
76586;BME280;65251;51.022;13.736;2023-05-19T00:10:10;100256.56;;;12.67;51.01
76586;BME280;65251;51.022;13.736;2023-05-19T00:10:42;100252.81;;;12.62;50.07
76586;BME280;65251;51.022;13.736;2023-05-19T00:11:13;100262.09;;;12.66;50.61
76586;BME280;65251;51.022;13.736;2023-05-19T00:11:44;100254.28;;;12.64;50.23
76586;BME280;65251;51.022;13.736;2023-05-19T00:12:16;100257.78;;;12.65;49.91
76586;BME280;65251;51.022;13.736;2023-05-19T00:12:48;100262.28;;;12.64;51.15
76586;BME280;65251;51.022;13.736;2023-05-19T00:13:20;100262.50;;;12.63;50.71
76586;BME280;65251;51.022;13.736;2023-05-19T00:13:54;100253.25;;;12.65;50.70
76586;BME280;65251;51.022;13.736;2023-05-19T00:14:26;100254.91;;;12.66;49.93
76586;BME280;65251;51.022;13.736;2023-05-19T00:14:58;100253.91;;;12.67;50.11
76586;BME280;65251;51.022;13.736;2023-05-19T00:15:30;100260.69;;;12.70;50.45
76586;BME280;65251;51.022;13.736;2023-05-19T00:16:04;100260.50;;;12.71;49.82
76586;BME280;65251;51.022;13.736;2023-05-19T00:16:36;100253.50;;;12.70;50.03
76586;BME280;65251;51.022;13.736;2023-05-19T00:17:08;100251.66;;;12.71;50.29
76586;BME280;65251;51.022;13.736;2023-05-19T00:17:39;100252.75;;;12.76;50.53
76586;BME280;65251;51.022;13.736;2023-05-19T00:18:11;100255.59;;;12.75;49.61
76586;BME280;65251;51.022;13.736;2023-05-19T00:18:43;100252.94;;;12.75;50.59
76586;BME280;65251;51.022;13.736;2023-05-19T00:19:16;100256.44;;;12.75;50.49
76586;BME280;65251;51.022;13.736;2023-05-19T00:19:48;100248.78;;;12.72;49.79
76586;BME280;65251;51.022;13.736;2023-05-19T00:20:19;100254.78;;;12.74;49.82
76586;BME280;65251;51.022;13.736;2023-05-19T00:20:51;100257.06;;;12.77;49.88
76586;BME280;65251;51.022;13.736;2023-05-19T00:21:22;100248.41;;;12.75;50.68
76586;BME280;65251;51.022;13.736;2023-05-19T00:21:52;100252.94;;;12.75;50.54
76586;BME280;65251;51.022;13.736;2023-05-19T00:22:23;100257.44;;;12.74;50.78
76586;BME280;65251;51.022;13.736;2023-05-19T00:22:55;100252.09;;;12.74;50.73
76586;BME280;65251;51.022;13.736;2023-05-19T00:23:26;100251.91;;;12.76;50.61
76586;BME280;65251;51.022;13.736;2023-05-19T00:23:56;100259.94;;;12.76;50.86
76586;BME280;65251;51.022;13.736;2023-05-19T00:24:28;100257.25;;;12.76;50.51
76586;BME280;65251;51.022;13.736;2023-05-19T00:24:59;100253.13;;;12.73;51.00
76586;BME280;65251;51.022;13.736;2023-05-19T00:25:30;100252.94;;;12.75;50.30
76586;BME280;65251;51.022;13.736;2023-05-19T00:26:01;100255.59;;;12.75;50.28
76586;BME280;65251;51.022;13.736;2023-05-19T00:26:32;100252.09;;;12.74;50.27
76586;BME280;65251;51.022;13.736;2023-05-19T00:27:03;100256.00;;;12.72;50.59
76586;BME280;65251;51.022;13.736;2023-05-19T00:27:35;100254.16;;;12.72;50.93
76586;BME280;65251;51.022;13.736;2023-05-19T00:28:06;100251.47;;;12.72;50.74
76586;BME280;65251;51.022;13.736;2023-05-19T00:28:36;100245.28;;;12.72;50.86
76586;BME280;65251;51.022;13.736;2023-05-19T00:29:08;100252.50;;;12.71;50.42
76586;BME280;65251;51.022;13.736;2023-05-19T00:29:39;100249.00;;;12.71;50.19
76586;BME280;65251;51.022;13.736;2023-05-19T00:30:10;100254.34;;;12.71;51.25
76586;BME280;65251;51.022;13.736;2023-05-19T00:30:42;100245.50;;;12.70;51.10
76586;BME280;65251;51.022;13.736;2023-05-19T00:31:14;100245.69;;;12.69;50.47
76586;BME280;65251;51.022;13.736;2023-05-19T00:31:44;100238.88;;;12.66;50.71
76586;BME280;65251;51.022;13.736;2023-05-19T00:32:15;100244.41;;;12.65;50.61
76586;BME280;65251;51.022;13.736;2023-05-19T00:32:47;100243.59;;;12.64;50.46
76586;BME280;65251;51.022;13.736;2023-05-19T00:33:18;100241.09;;;12.63;50.44
76586;BME280;65251;51.022;13.736;2023-05-19T00:33:48;100241.09;;;12.63;50.91
76586;BME280;65251;51.022;13.736;2023-05-19T00:34:19;100238.44;;;12.63;50.54
76586;BME280;65251;51.022;13.736;2023-05-19T00:34:51;100238.63;;;12.61;50.79
76586;BME280;65251;51.022;13.736;2023-05-19T00:35:22;100239.63;;;12.60;51.05
76586;BME280;65251;51.022;13.736;2023-05-19T00:35:53;100233.47;;;12.60;50.51
76586;BME280;65251;51.022;13.736;2023-05-19T00:36:24;100239.63;;;12.60;51.15
76586;BME280;65251;51.022;13.736;2023-05-19T00:36:56;100234.50;;;12.59;51.11
76586;BME280;65251;51.022;13.736;2023-05-19T00:37:26;100241.91;;;12.57;51.64
76586;BME280;65251;51.022;13.736;2023-05-19T00:37:57;100239.22;;;12.57;50.92
76586;BME280;65251;51.022;13.736;2023-05-19T00:38:29;100242.91;;;12.56;51.98
76586;BME280;65251;51.022;13.736;2023-05-19T00:39:00;100244.94;;;12.54;51.58
76586;BME280;65251;51.022;13.736;2023-05-19T00:39:31;100235.47;;;12.51;50.65
76586;BME280;65251;51.022;13.736;2023-05-19T00:40:03;100235.03;;;12.48;51.45
76586;BME280;65251;51.022;13.736;2023-05-19T00:40:35;100244.44;;;12.43;51.93
76586;BME280;65251;51.022;13.736;2023-05-19T00:41:06;100240.91;;;12.36;51.92
76586;BME280;65251;51.022;13.736;2023-05-19T00:41:38;100244.41;;;12.37;51.68
76586;BME280;65251;51.022;13.736;2023-05-19T00:42:09;100233.28;;;12.33;51.79
76586;BME280;65251;51.022;13.736;2023-05-19T00:42:40;100231.81;;;12.31;52.22
76586;BME280;65251;51.022;13.736;2023-05-19T00:43:12;100238.34;;;12.28;52.29
76586;BME280;65251;51.022;13.736;2023-05-19T00:43:42;100243.69;;;12.28;52.45
76586;BME280;65251;51.022;13.736;2023-05-19T00:44:13;100241.22;;;12.27;51.70
76586;BME280;65251;51.022;13.736;2023-05-19T00:44:45;100245.91;;;12.25;52.02
76586;BME280;65251;51.022;13.736;2023-05-19T00:45:16;100232.53;;;12.18;51.84
76586;BME280;65251;51.022;13.736;2023-05-19T00:45:47;100244.47;;;12.22;52.13
76586;BME280;65251;51.022;13.736;2023-05-19T00:46:20;100252.66;;;12.21;52.85
76586;BME280;65251;51.022;13.736;2023-05-19T00:46:52;100243.81;;;12.20;52.30
76586;BME280;65251;51.022;13.736;2023-05-19T00:47:23;100246.06;;;12.17;52.42
76586;BME280;65251;51.022;13.736;2023-05-19T00:47:54;100248.75;;;12.17;52.71
76586;BME280;65251;51.022;13.736;2023-05-19T00:48:26;100242.13;;;12.13;52.84
76586;BME280;65251;51.022;13.736;2023-05-19T00:48:57;100247.66;;;12.11;53.07
76586;BME280;65251;51.022;13.736;2023-05-19T00:49:28;100247.19;;;12.07;52.96
76586;BME280;65251;51.022;13.736;2023-05-19T00:49:59;100245.72;;;12.05;53.13
76586;BME280;65251;51.022;13.736;2023-05-19T00:50:30;100244.25;;;12.02;53.22
76586;BME280;65251;51.022;13.736;2023-05-19T00:51:02;100250.81;;;12.00;53.79
76586;BME280;65251;51.022;13.736;2023-05-19T00:51:36;100251.84;;;11.99;54.41
76586;BME280;65251;51.022;13.736;2023-05-19T00:52:06;100255.72;;;11.96;53.95
76586;BME280;65251;51.022;13.736;2023-05-19T00:52:37;100244.22;;;11.96;53.88
76586;BME280;65251;51.022;13.736;2023-05-19T00:53:09;100247.25;;;11.93;54.16
76586;BME280;65251;51.022;13.736;2023-05-19T00:53:40;100253.81;;;11.90;54.06
76586;BME280;65251;51.022;13.736;2023-05-19T00:54:11;100240.00;;;11.87;54.29
76586;BME280;65251;51.022;13.736;2023-05-19T00:54:43;100246.16;;;11.87;54.74
76586;BME280;65251;51.022;13.736;2023-05-19T00:55:16;100250.03;;;11.85;54.44
76586;BME280;65251;51.022;13.736;2023-05-19T00:55:47;100245.72;;;11.84;54.46
76586;BME280;65251;51.022;13.736;2023-05-19T00:56:19;100241.75;;;11.80;54.50
76586;BME280;65251;51.022;13.736;2023-05-19T00:56:52;100246.09;;;11.81;54.58
76586;BME280;65251;51.022;13.736;2023-05-19T00:57:23;100247.31;;;11.78;55.33
76586;BME280;65251;51.022;13.736;2023-05-19T00:57:55;100247.50;;;11.77;55.32
76586;BME280;65251;51.022;13.736;2023-05-19T00:58:26;100238.00;;;11.74;54.86
76586;BME280;65251;51.022;13.736;2023-05-19T00:58:59;100234.69;;;11.72;55.25
76586;BME280;65251;51.022;13.736;2023-05-19T00:59:30;100246.38;;;11.71;54.95
76586;BME280;65251;51.022;13.736;2023-05-19T01:00:01;100245.53;;;11.70;55.23
76586;BME280;65251;51.022;13.736;2023-05-19T01:00:33;100242.41;;;11.67;55.49
76586;BME280;65251;51.022;13.736;2023-05-19T01:01:06;100245.09;;;11.67;55.09
76586;BME280;65251;51.022;13.736;2023-05-19T01:01:39;100238.09;;;11.66;55.27
76586;BME280;65251;51.022;13.736;2023-05-19T01:02:11;100245.28;;;11.65;55.39
76586;BME280;65251;51.022;13.736;2023-05-19T01:02:42;100239.09;;;11.65;55.10
76586;BME280;65251;51.022;13.736;2023-05-19T01:03:13;100244.44;;;11.65;55.35
76586;BME280;65251;51.022;13.736;2023-05-19T01:03:49;100240.13;;;11.64;55.42
76586;BME280;65251;51.022;13.736;2023-05-19T01:04:21;100240.13;;;11.64;55.28
76586;BME280;65251;51.022;13.736;2023-05-19T01:04:52;100245.28;;;11.65;55.16
76586;BME280;65251;51.022;13.736;2023-05-19T01:05:25;100243.44;;;11.66;55.39
76586;BME280;65251;51.022;13.736;2023-05-19T01:05:56;100238.09;;;11.66;55.12
76586;BME280;65251;51.022;13.736;2023-05-19T01:06:31;100241.97;;;11.63;55.38
76586;BME280;65251;51.022;13.736;2023-05-19T01:07:04;100227.97;;;11.61;55.29
76586;BME280;65251;51.022;13.736;2023-05-19T01:07:35;100243.16;;;11.61;55.50
76586;BME280;65251;51.022;13.736;2023-05-19T01:08:06;100243.97;;;11.61;55.45
76586;BME280;65251;51.022;13.736;2023-05-19T01:08:37;100234.53;;;11.59;55.56
76586;BME280;65251;51.022;13.736;2023-05-19T01:09:09;100240.25;;;11.56;55.74
76586;BME280;65251;51.022;13.736;2023-05-19T01:09:41;100236.09;;;11.53;55.71
76586;BME280;65251;51.022;13.736;2023-05-19T01:10:12;100233.25;;;11.55;55.87
76586;BME280;65251;51.022;13.736;2023-05-19T01:10:44;100245.41;;;11.57;55.61
76586;BME280;65251;51.022;13.736;2023-05-19T01:11:14;100243.09;;;11.54;55.99
76586;BME280;65251;51.022;13.736;2023-05-19T01:11:45;100234.44;;;11.52;55.45
76586;BME280;65251;51.022;13.736;2023-05-19T01:12:17;100241.63;;;11.52;55.84
76586;BME280;65251;51.022;13.736;2023-05-19T01:12:48;100241.81;;;11.50;55.82
76586;BME280;65251;51.022;13.736;2023-05-19T01:13:19;100236.66;;;11.49;55.76
76586;BME280;65251;51.022;13.736;2023-05-19T01:13:50;100237.66;;;11.48;55.83
76586;BME280;65251;51.022;13.736;2023-05-19T01:14:22;100244.03;;;11.47;56.00
76586;BME280;65251;51.022;13.736;2023-05-19T01:14:53;100234.19;;;11.47;55.72
76586;BME280;65251;51.022;13.736;2023-05-19T01:15:26;100248.53;;;11.46;56.30
76586;BME280;65251;51.022;13.736;2023-05-19T01:16:02;100244.84;;;11.47;56.12
76586;BME280;65251;51.022;13.736;2023-05-19T01:16:41;100234.34;;;11.46;55.58
76586;BME280;65251;51.022;13.736;2023-05-19T01:17:20;100237.84;;;11.46;56.09
76586;BME280;65251;51.022;13.736;2023-05-19T01:18:01;100232.69;;;11.45;55.94
76586;BME280;65251;51.022;13.736;2023-05-19T01:18:46;100233.72;;;11.44;55.85
76586;BME280;65251;51.022;13.736;2023-05-19T01:19:38;100241.72;;;11.44;56.02
76586;BME280;65251;51.022;13.736;2023-05-19T01:20:21;100233.72;;;11.44;55.82
76586;BME280;65251;51.022;13.736;2023-05-19T01:22:18;100232.44;;;11.39;56.36
76586;BME280;65251;51.022;13.736;2023-05-19T01:23:17;100236.13;;;11.38;56.44
76586;BME280;65251;51.022;13.736;2023-05-19T01:23:58;100237.97;;;11.38;56.40
76586;BME280;65251;51.022;13.736;2023-05-19T01:25:06;100234.09;;;11.40;56.29
76586;BME280;65251;51.022;13.736;2023-05-19T01:27:17;100232.25;;;11.41;56.06
76586;BME280;65251;51.022;13.736;2023-05-19T01:28:19;100240.25;;;11.41;56.64
76586;BME280;65251;51.022;13.736;2023-05-19T01:29:07;100234.66;;;11.36;55.90
76586;BME280;65251;51.022;13.736;2023-05-19T01:31:03;100232.38;;;11.33;56.07
76586;BME280;65251;51.022;13.736;2023-05-19T01:31:37;100229.69;;;11.33;55.60
76586;BME280;65251;51.022;13.736;2023-05-19T01:32:10;100234.03;;;11.34;56.15
76586;BME280;65251;51.022;13.736;2023-05-19T01:32:44;100234.19;;;11.32;56.18
76586;BME280;65251;51.022;13.736;2023-05-19T01:33:18;100237.25;;;11.29;56.62
76586;BME280;65251;51.022;13.736;2023-05-19T01:33:52;100232.53;;;11.31;56.84
76586;BME280;65251;51.022;13.736;2023-05-19T01:34:26;100229.69;;;11.33;56.48
76586;BME280;65251;51.022;13.736;2023-05-19T01:34:57;100228.88;;;11.32;56.23
76586;BME280;65251;51.022;13.736;2023-05-19T01:35:30;100233.84;;;11.35;56.55
76586;BME280;65251;51.022;13.736;2023-05-19T01:36:03;100222.34;;;11.35;55.55
76586;BME280;65251;51.022;13.736;2023-05-19T01:36:37;100241.47;;;11.38;56.18
76586;BME280;65251;51.022;13.736;2023-05-19T01:37:12;100239.81;;;11.37;55.89
76586;BME280;65251;51.022;13.736;2023-05-19T01:37:46;100238.81;;;11.38;56.47
76586;BME280;65251;51.022;13.736;2023-05-19T01:38:19;100236.31;;;11.37;56.67
76586;BME280;65251;51.022;13.736;2023-05-19T01:38:55;100239.19;;;11.35;57.18
76586;BME280;65251;51.022;13.736;2023-05-19T01:39:28;100236.03;;;11.32;56.86
76586;BME280;65251;51.022;13.736;2023-05-19T01:39:59;100239.72;;;11.31;56.92
76586;BME280;65251;51.022;13.736;2023-05-19T01:40:32;100240.56;;;11.31;57.32
76586;BME280;65251;51.022;13.736;2023-05-19T01:41:05;100243.41;;;11.30;57.28
76586;BME280;65251;51.022;13.736;2023-05-19T01:41:40;100239.91;;;11.29;56.96
76586;BME280;65251;51.022;13.736;2023-05-19T01:42:13;100244.41;;;11.29;56.67
76586;BME280;65251;51.022;13.736;2023-05-19T01:42:46;100241.75;;;11.29;56.51
76586;BME280;65251;51.022;13.736;2023-05-19T01:43:20;100240.91;;;11.28;57.30
76586;BME280;65251;51.022;13.736;2023-05-19T01:43:52;100240.91;;;11.28;57.51
76586;BME280;65251;51.022;13.736;2023-05-19T01:44:23;100240.09;;;11.28;57.34
76586;BME280;65251;51.022;13.736;2023-05-19T01:44:55;100245.25;;;11.29;56.94
76586;BME280;65251;51.022;13.736;2023-05-19T01:45:28;100239.25;;;11.27;57.12
76586;BME280;65251;51.022;13.736;2023-05-19T01:46:02;100243.94;;;11.25;56.84
76586;BME280;65251;51.022;13.736;2023-05-19T01:46:33;100239.63;;;11.24;56.92
76586;BME280;65251;51.022;13.736;2023-05-19T01:47:05;100236.69;;;11.19;57.21
76586;BME280;65251;51.022;13.736;2023-05-19T01:47:41;100242.66;;;11.21;57.33
76586;BME280;65251;51.022;13.736;2023-05-19T01:48:13;100247.34;;;11.19;56.97
76586;BME280;65251;51.022;13.736;2023-05-19T01:48:45;100226.31;;;11.10;57.34
76586;BME280;65251;51.022;13.736;2023-05-19T01:49:17;100237.91;;;11.17;58.01
76586;BME280;65251;51.022;13.736;2023-05-19T01:49:48;100243.59;;;11.14;57.83
76586;BME280;65251;51.022;13.736;2023-05-19T01:50:19;100237.63;;;11.12;58.23
76586;BME280;65251;51.022;13.736;2023-05-19T01:50:50;100242.13;;;11.11;57.79
76586;BME280;65251;51.022;13.736;2023-05-19T01:51:22;100242.50;;;11.08;58.00
76586;BME280;65251;51.022;13.736;2023-05-19T01:51:53;100241.00;;;11.05;58.35
76586;BME280;65251;51.022;13.736;2023-05-19T01:52:24;100243.88;;;11.04;57.88
76586;BME280;65251;51.022;13.736;2023-05-19T01:52:56;100242.22;;;11.03;58.04
76586;BME280;65251;51.022;13.736;2023-05-19T01:53:26;100239.53;;;11.03;58.20
76586;BME280;65251;51.022;13.736;2023-05-19T01:53:57;100239.91;;;11.00;59.12
76586;BME280;65251;51.022;13.736;2023-05-19T01:54:29;100239.06;;;10.99;58.35
76586;BME280;65251;51.022;13.736;2023-05-19T01:55:00;100233.13;;;10.97;58.86
76586;BME280;65251;51.022;13.736;2023-05-19T01:55:31;100236.81;;;10.96;58.64
76586;BME280;65251;51.022;13.736;2023-05-19T01:56:03;100237.63;;;10.97;59.05
76586;BME280;65251;51.022;13.736;2023-05-19T01:56:41;100243.97;;;10.96;58.83
76586;BME280;65251;51.022;13.736;2023-05-19T01:57:26;100244.16;;;10.94;58.35
76586;BME280;65251;51.022;13.736;2023-05-19T01:58:12;100241.03;;;10.91;58.68
76586;BME280;65251;51.022;13.736;2023-05-19T01:58:50;100238.91;;;10.86;59.54
76586;BME280;65251;51.022;13.736;2023-05-19T01:59:33;100242.22;;;10.88;58.88
76586;BME280;65251;51.022;13.736;2023-05-19T02:00:12;100239.91;;;10.85;59.14
76586;BME280;65251;51.022;13.736;2023-05-19T02:00:52;100238.44;;;10.83;59.17
76586;BME280;65251;51.022;13.736;2023-05-19T02:01:33;100236.22;;;10.86;59.33
76586;BME280;65251;51.022;13.736;2023-05-19T02:02:18;100237.59;;;10.82;59.53
76586;BME280;65251;51.022;13.736;2023-05-19T02:02:59;100231.44;;;10.82;59.87
76586;BME280;65251;51.022;13.736;2023-05-19T02:03:42;100233.28;;;10.81;59.21
76586;BME280;65251;51.022;13.736;2023-05-19T02:04:28;100237.78;;;10.81;59.89
76586;BME280;65251;51.022;13.736;2023-05-19T02:05:08;100231.63;;;10.80;59.95
76586;BME280;65251;51.022;13.736;2023-05-19T02:05:51;100229.16;;;10.79;60.04
76586;BME280;65251;51.022;13.736;2023-05-19T02:06:32;100237.16;;;10.79;60.31
76586;BME280;65251;51.022;13.736;2023-05-19T02:07:12;100228.94;;;10.80;59.64
76586;BME280;65251;51.022;13.736;2023-05-19T02:07:54;100223.63;;;10.80;59.26
76586;BME280;65251;51.022;13.736;2023-05-19T02:08:34;100228.94;;;10.80;59.35
76586;BME280;65251;51.022;13.736;2023-05-19T02:09:12;100232.44;;;10.81;59.96
76586;BME280;65251;51.022;13.736;2023-05-19T02:09:51;100224.44;;;10.81;60.22
76586;BME280;65251;51.022;13.736;2023-05-19T02:10:26;100220.94;;;10.80;59.63
76586;BME280;65251;51.022;13.736;2023-05-19T02:11:05;100238.59;;;10.81;60.33
76586;BME280;65251;51.022;13.736;2023-05-19T02:11:42;100229.16;;;10.79;59.70
76586;BME280;65251;51.022;13.736;2023-05-19T02:12:19;100226.69;;;10.77;59.94
76586;BME280;65251;51.022;13.736;2023-05-19T02:12:59;100229.34;;;10.77;59.51
76586;BME280;65251;51.022;13.736;2023-05-19T02:13:36;100233.66;;;10.78;59.63
76586;BME280;65251;51.022;13.736;2023-05-19T02:14:17;100230.16;;;10.78;60.37
76586;BME280;65251;51.022;13.736;2023-05-19T02:14:53;100231.34;;;10.75;60.51
76586;BME280;65251;51.022;13.736;2023-05-19T02:15:30;100230.88;;;10.72;60.12
76586;BME280;65251;51.022;13.736;2023-05-19T02:16:04;100228.88;;;10.74;60.01
76586;BME280;65251;51.022;13.736;2023-05-19T02:16:37;100231.53;;;10.74;60.77
76586;BME280;65251;51.022;13.736;2023-05-19T02:17:12;100233.38;;;10.73;59.98
76586;BME280;65251;51.022;13.736;2023-05-19T02:17:47;100235.22;;;10.73;60.14
76586;BME280;65251;51.022;13.736;2023-05-19T02:18:22;100234.38;;;10.72;60.75
76586;BME280;65251;51.022;13.736;2023-05-19T02:18:54;100236.22;;;10.72;60.55
76586;BME280;65251;51.022;13.736;2023-05-19T02:19:28;100220.75;;;10.67;60.58
76586;BME280;65251;51.022;13.736;2023-05-19T02:20:00;100240.44;;;10.66;60.73
76586;BME280;65251;51.022;13.736;2023-05-19T02:20:31;100231.59;;;10.65;60.05
76586;BME280;65251;51.022;13.736;2023-05-19T02:21:03;100228.94;;;10.65;60.87
76586;BME280;65251;51.022;13.736;2023-05-19T02:21:33;100231.78;;;10.64;60.55
76586;BME280;65251;51.022;13.736;2023-05-19T02:22:05;100229.13;;;10.64;60.41
76586;BME280;65251;51.022;13.736;2023-05-19T02:22:36;100221.31;;;10.62;60.37
76586;BME280;65251;51.022;13.736;2023-05-19T02:23:08;100221.31;;;10.62;60.67
76586;BME280;65251;51.022;13.736;2023-05-19T02:23:39;100225.16;;;10.60;61.18
76586;BME280;65251;51.022;13.736;2023-05-19T02:24:10;100235.47;;;10.63;61.41
76586;BME280;65251;51.022;13.736;2023-05-19T02:24:41;100227.47;;;10.63;60.93
76586;BME280;65251;51.022;13.736;2023-05-19T02:25:13;100229.28;;;10.62;60.53
76586;BME280;65251;51.022;13.736;2023-05-19T02:25:44;100228.28;;;10.63;61.04
76586;BME280;65251;51.022;13.736;2023-05-19T02:26:15;100222.78;;;10.65;60.09
76586;BME280;65251;51.022;13.736;2023-05-19T02:26:47;100231.59;;;10.65;61.04
76586;BME280;65251;51.022;13.736;2023-05-19T02:27:18;100229.94;;;10.64;59.98
76586;BME280;65251;51.022;13.736;2023-05-19T02:27:51;100231.97;;;10.62;60.37
76586;BME280;65251;51.022;13.736;2023-05-19T02:28:21;100224.16;;;10.61;59.89
76586;BME280;65251;51.022;13.736;2023-05-19T02:28:57;100230.94;;;10.63;59.91
76586;BME280;65251;51.022;13.736;2023-05-19T02:29:27;100236.47;;;10.62;60.18
76586;BME280;65251;51.022;13.736;2023-05-19T02:29:58;100230.13;;;10.63;60.98
76586;BME280;65251;51.022;13.736;2023-05-19T02:30:30;100231.97;;;10.62;60.31
76586;BME280;65251;51.022;13.736;2023-05-19T02:31:01;100229.13;;;10.64;60.50
76586;BME280;65251;51.022;13.736;2023-05-19T02:31:32;100235.28;;;10.64;60.97
76586;BME280;65251;51.022;13.736;2023-05-19T02:32:06;100227.47;;;10.63;60.25
76586;BME280;65251;51.022;13.736;2023-05-19T02:32:37;100229.47;;;10.61;60.70
76586;BME280;65251;51.022;13.736;2023-05-19T02:33:07;100227.81;;;10.60;61.61
76586;BME280;65251;51.022;13.736;2023-05-19T02:33:40;100227.00;;;10.59;61.09
76586;BME280;65251;51.022;13.736;2023-05-19T02:34:12;100228.84;;;10.59;61.70
76586;BME280;65251;51.022;13.736;2023-05-19T02:34:43;100227.19;;;10.58;61.86
76586;BME280;65251;51.022;13.736;2023-05-19T02:35:15;100229.03;;;10.57;61.81
76586;BME280;65251;51.022;13.736;2023-05-19T02:35:46;100227.00;;;10.59;61.84
76586;BME280;65251;51.022;13.736;2023-05-19T02:36:17;100224.91;;;10.55;61.82
76586;BME280;65251;51.022;13.736;2023-05-19T02:36:48;100229.66;;;10.59;60.91
76586;BME280;65251;51.022;13.736;2023-05-19T02:37:21;100223.72;;;10.57;61.68
76586;BME280;65251;51.022;13.736;2023-05-19T02:37:53;100236.84;;;10.59;60.63
76586;BME280;65251;51.022;13.736;2023-05-19T02:38:24;100224.53;;;10.58;61.54
76586;BME280;65251;51.022;13.736;2023-05-19T02:38:55;100221.88;;;10.58;61.41
76586;BME280;65251;51.022;13.736;2023-05-19T02:39:26;100226.38;;;10.57;61.61
76586;BME280;65251;51.022;13.736;2023-05-19T02:39:58;100229.88;;;10.58;61.29
76586;BME280;65251;51.022;13.736;2023-05-19T02:40:29;100224.53;;;10.58;61.64
76586;BME280;65251;51.022;13.736;2023-05-19T02:41:01;100228.22;;;10.57;61.64
76586;BME280;65251;51.022;13.736;2023-05-19T02:41:31;100227.38;;;10.56;61.46
76586;BME280;65251;51.022;13.736;2023-05-19T02:42:02;100227.56;;;10.55;61.15
76586;BME280;65251;51.022;13.736;2023-05-19T02:42:34;100225.06;;;10.53;60.96
76586;BME280;65251;51.022;13.736;2023-05-19T02:43:05;100232.06;;;10.54;61.84
76586;BME280;65251;51.022;13.736;2023-05-19T02:43:36;100228.75;;;10.52;62.07
76586;BME280;65251;51.022;13.736;2023-05-19T02:44:06;100236.09;;;10.50;61.23
76586;BME280;65251;51.022;13.736;2023-05-19T02:44:38;100229.75;;;10.51;61.06
76586;BME280;65251;51.022;13.736;2023-05-19T02:45:10;100229.94;;;10.50;62.04
76586;BME280;65251;51.022;13.736;2023-05-19T02:45:41;100235.09;;;10.51;62.24
76586;BME280;65251;51.022;13.736;2023-05-19T02:46:12;100230.75;;;10.50;61.27
76586;BME280;65251;51.022;13.736;2023-05-19T02:46:43;100225.13;;;10.45;61.92
76586;BME280;65251;51.022;13.736;2023-05-19T02:47:15;100237.28;;;10.48;63.02
76586;BME280;65251;51.022;13.736;2023-05-19T02:47:47;100226.78;;;10.46;62.49
76586;BME280;65251;51.022;13.736;2023-05-19T02:48:17;100226.63;;;10.48;61.78
76586;BME280;65251;51.022;13.736;2023-05-19T02:48:50;100229.28;;;10.48;62.95
76586;BME280;65251;51.022;13.736;2023-05-19T02:49:22;100227.63;;;10.47;63.04
76586;BME280;65251;51.022;13.736;2023-05-19T02:49:53;100230.28;;;10.47;62.93
76586;BME280;65251;51.022;13.736;2023-05-19T02:50:23;100231.13;;;10.47;61.78
76586;BME280;65251;51.022;13.736;2023-05-19T02:50:55;100234.78;;;10.46;62.10
76586;BME280;65251;51.022;13.736;2023-05-19T02:51:26;100225.13;;;10.45;62.44
76586;BME280;65251;51.022;13.736;2023-05-19T02:51:56;100222.66;;;10.44;63.12
76586;BME280;65251;51.022;13.736;2023-05-19T02:52:28;100222.66;;;10.44;62.83
76586;BME280;65251;51.022;13.736;2023-05-19T02:52:59;100228.81;;;10.44;63.20
76586;BME280;65251;51.022;13.736;2023-05-19T02:53:30;100228.81;;;10.44;62.85
76586;BME280;65251;51.022;13.736;2023-05-19T02:54:02;100226.97;;;10.45;62.98
76586;BME280;65251;51.022;13.736;2023-05-19T02:54:33;100228.16;;;10.42;63.22
76586;BME280;65251;51.022;13.736;2023-05-19T02:55:05;100228.97;;;10.43;63.04
76586;BME280;65251;51.022;13.736;2023-05-19T02:55:37;100229.81;;;10.43;63.15
76586;BME280;65251;51.022;13.736;2023-05-19T02:56:07;100218.50;;;10.41;63.43